LOG86BX EGPF-EGPR

Flight info

Callsign LOG86BX
Flight time 0h 50m
Altitude 6000
Route VRP/ARDMORE-POINT
Aircraft DHC6/L-SDFGHRWY/L

Departure

Time 2026-05-06 12:37
Airport Glasgow Airport (EGPF)

Arrival

Time 2026-05-06 13:28
Airport Barra Airport (EGPR)
Time Latitude Longitude Altitude Speed Heading
2026-05-06 12:20 55.86722 -4.43449 31 ft 0 kts 166°
2026-05-06 12:31 55.86732 -4.43454 31 ft 4 kts 166°
2026-05-06 12:31 55.86756 -4.43464 31 ft 1 kts 164°
2026-05-06 12:32 55.86762 -4.43468 31 ft 0 kts 157°
2026-05-06 12:32 55.86759 -4.43464 31 ft 4 kts 136°
2026-05-06 12:32 55.86778 -4.43393 31 ft 14 kts 53°
2026-05-06 12:32 55.86824 -4.43207 31 ft 17 kts 74°
2026-05-06 12:33 55.86846 -4.43063 31 ft 9 kts 76°
2026-05-06 12:33 55.86863 -4.43001 31 ft 1 kts 45°
2026-05-06 12:33 55.86894 -4.42952 31 ft 11 kts 34°
2026-05-06 12:33 55.86965 -4.42889 31 ft 15 kts 24°
2026-05-06 12:34 55.87064 -4.42815 31 ft 12 kts 18°
2026-05-06 12:34 55.87153 -4.42753 31 ft 16 kts 20°
2026-05-06 12:34 55.87272 -4.42676 31 ft 18 kts 20°
2026-05-06 12:34 55.87366 -4.42608 31 ft 15 kts 22°
2026-05-06 12:35 55.87425 -4.42534 31 ft 8 kts 46°
2026-05-06 12:35 55.87484 -4.42425 31 ft 13 kts 46°
2026-05-06 12:35 55.87565 -4.42273 31 ft 18 kts 47°
2026-05-06 12:35 55.87624 -4.42170 31 ft 5 kts 12°
2026-05-06 12:36 55.87689 -4.42159 31 ft 9 kts 348°
2026-05-06 12:36 55.87758 -4.42252 31 ft 5 kts 274°
2026-05-06 12:36 55.87705 -4.42373 31 ft 21 kts 225°
2026-05-06 12:36 55.87418 -4.42901 51 ft 96 kts 226°
2026-05-06 12:37 55.86922 -4.43812 300 ft 101 kts 226°
2026-05-06 12:37 55.86419 -4.44712 593 ft 111 kts 225°
2026-05-06 12:37 55.85867 -4.45673 947 ft 114 kts 224°
2026-05-06 12:37 55.85459 -4.46854 1305 ft 111 kts 249°
2026-05-06 12:38 55.85447 -4.48184 1699 ft 110 kts 282°
2026-05-06 12:38 55.85790 -4.49461 1917 ft 122 kts 300°
2026-05-06 12:38 55.86447 -4.50520 2048 ft 137 kts 322°
2026-05-06 12:38 55.87298 -4.51483 2092 ft 149 kts 324°
2026-05-06 12:39 55.88182 -4.52498 2034 ft 154 kts 324°
2026-05-06 12:39 55.89082 -4.53534 2002 ft 154 kts 324°
2026-05-06 12:39 55.89982 -4.54562 1995 ft 152 kts 325°
2026-05-06 12:39 55.90858 -4.55557 1987 ft 148 kts 325°
2026-05-06 12:40 55.91723 -4.56524 1986 ft 147 kts 326°
2026-05-06 12:40 55.92591 -4.57486 1997 ft 148 kts 325°
2026-05-06 12:40 55.93346 -4.58707 2000 ft 146 kts 308°
2026-05-06 12:40 55.93907 -4.60215 2005 ft 146 kts 298°
2026-05-06 12:41 55.94439 -4.61756 2000 ft 147 kts 300°
2026-05-06 12:41 55.95023 -4.63254 1996 ft 148 kts 304°
2026-05-06 12:41 55.95529 -4.64799 1999 ft 146 kts 292°
2026-05-06 12:41 55.95903 -4.66507 2001 ft 146 kts 288°
2026-05-06 12:42 55.96241 -4.68212 1995 ft 146 kts 287°
2026-05-06 12:42 55.96571 -4.69912 2026 ft 143 kts 287°
2026-05-06 12:42 55.96897 -4.71596 2295 ft 143 kts 287°
2026-05-06 12:42 55.97355 -4.73174 2594 ft 143 kts 299°
2026-05-06 12:43 55.97867 -4.74697 2891 ft 144 kts 299°
2026-05-06 12:43 55.98401 -4.76226 3181 ft 147 kts 305°
2026-05-06 12:43 55.99217 -4.77330 3490 ft 148 kts 330°
2026-05-06 12:43 56.00142 -4.78171 3803 ft 150 kts 333°
2026-05-06 12:44 56.01081 -4.78984 4107 ft 151 kts 335°
2026-05-06 12:44 56.02036 -4.79789 4413 ft 152 kts 335°
2026-05-06 12:44 56.02993 -4.80600 4714 ft 153 kts 335°
2026-05-06 12:44 56.03956 -4.81414 5015 ft 154 kts 334°
2026-05-06 12:45 56.04915 -4.82269 5318 ft 154 kts 331°
2026-05-06 12:45 56.05848 -4.83201 5620 ft 155 kts 329°
2026-05-06 12:45 56.07602 -4.85518 5992 ft 161 kts 314°
2026-05-06 12:46 56.08411 -4.86968 6004 ft 168 kts 314°
2026-05-06 12:46 56.09252 -4.88452 5998 ft 173 kts 314°
2026-05-06 12:46 56.10109 -4.89953 5990 ft 170 kts 314°
2026-05-06 12:46 56.10958 -4.91408 5991 ft 167 kts 315°
2026-05-06 12:47 56.11798 -4.92829 5993 ft 165 kts 315°
2026-05-06 12:47 56.12633 -4.94225 5990 ft 164 kts 315°
2026-05-06 12:47 56.13469 -4.95606 5991 ft 163 kts 315°
2026-05-06 12:47 56.14305 -4.96971 5992 ft 162 kts 316°
2026-05-06 12:48 56.15142 -4.98313 5989 ft 162 kts 316°
2026-05-06 12:48 56.15987 -4.99650 5991 ft 162 kts 316°
2026-05-06 12:48 56.16835 -5.00985 5993 ft 162 kts 316°
2026-05-06 12:48 56.17684 -5.02312 5994 ft 162 kts 317°
2026-05-06 12:49 56.18525 -5.03625 5994 ft 161 kts 316°
2026-05-06 12:49 56.19360 -5.04978 5993 ft 161 kts 315°
2026-05-06 12:49 56.20169 -5.06350 5994 ft 159 kts 312°
2026-05-06 12:49 56.20944 -5.07769 5994 ft 159 kts 312°
2026-05-06 12:50 56.21721 -5.09172 5993 ft 158 kts 313°
2026-05-06 12:50 56.22421 -5.10662 5988 ft 156 kts 299°
2026-05-06 12:50 56.22875 -5.12408 6003 ft 154 kts 291°
2026-05-06 12:50 56.23303 -5.14178 6001 ft 156 kts 291°
2026-05-06 12:51 56.23740 -5.15971 6000 ft 157 kts 291°
2026-05-06 12:51 56.24197 -5.17762 5991 ft 158 kts 295°
2026-05-06 12:51 56.24809 -5.19408 5991 ft 159 kts 307°
2026-05-06 12:51 56.25611 -5.20778 5992 ft 160 kts 319°
2026-05-06 12:52 56.26539 -5.21873 5987 ft 160 kts 330°
2026-05-06 12:52 56.27530 -5.22765 5987 ft 160 kts 332°
2026-05-06 12:52 56.28518 -5.23668 5984 ft 159 kts 328°
2026-05-06 12:52 56.29381 -5.24882 5988 ft 156 kts 315°
2026-05-06 12:53 56.30171 -5.26219 5988 ft 156 kts 317°
2026-05-06 12:53 56.30990 -5.27489 5986 ft 156 kts 316°
2026-05-06 12:53 56.31806 -5.28776 5984 ft 155 kts 316°
2026-05-06 12:53 56.32616 -5.30057 5984 ft 155 kts 316°
2026-05-06 12:54 56.33386 -5.31393 5986 ft 153 kts 311°
2026-05-06 12:54 56.34100 -5.32822 5986 ft 154 kts 309°
2026-05-06 12:54 56.34809 -5.34272 5988 ft 155 kts 309°
2026-05-06 12:54 56.35519 -5.35733 5987 ft 155 kts 308°
2026-05-06 12:55 56.36231 -5.37185 5986 ft 155 kts 309°
2026-05-06 12:55 56.36954 -5.38624 5985 ft 155 kts 310°
2026-05-06 12:55 56.37677 -5.40058 5984 ft 154 kts 309°
2026-05-06 12:55 56.38372 -5.41521 5983 ft 153 kts 307°
2026-05-06 12:56 56.39051 -5.42992 5984 ft 153 kts 307°
2026-05-06 12:56 56.39727 -5.44464 5982 ft 152 kts 307°
2026-05-06 12:56 56.40399 -5.45930 5984 ft 151 kts 307°
2026-05-06 12:56 56.41064 -5.47385 5981 ft 150 kts 307°
2026-05-06 12:57 56.41725 -5.48826 5982 ft 149 kts 307°
2026-05-06 12:57 56.42384 -5.50263 5981 ft 148 kts 307°
2026-05-06 12:57 56.43022 -5.51708 5983 ft 146 kts 304°
2026-05-06 12:57 56.43623 -5.53188 5982 ft 145 kts 303°
2026-05-06 12:58 56.44016 -5.54164 5981 ft 144 kts 303°
2026-05-06 12:58 56.44601 -5.55625 5980 ft 143 kts 303°
2026-05-06 12:58 56.45181 -5.57078 5981 ft 142 kts 303°
2026-05-06 12:58 56.45755 -5.58514 5980 ft 140 kts 303°
2026-05-06 12:59 56.46320 -5.59932 5980 ft 139 kts 303°
2026-05-06 12:59 56.46880 -5.61344 5981 ft 137 kts 303°
2026-05-06 12:59 56.47434 -5.62743 5980 ft 136 kts 303°
2026-05-06 12:59 56.47979 -5.64128 5980 ft 135 kts 302°
2026-05-06 13:00 56.48521 -5.65506 5979 ft 134 kts 302°
2026-05-06 13:00 56.49058 -5.66877 5980 ft 133 kts 302°
2026-05-06 13:00 56.49573 -5.68250 5978 ft 131 kts 297°
2026-05-06 13:00 56.50021 -5.69678 5982 ft 132 kts 296°
2026-05-06 13:01 56.50471 -5.71107 5990 ft 133 kts 296°
2026-05-06 13:01 56.50934 -5.72594 5991 ft 135 kts 296°
2026-05-06 13:01 56.51394 -5.74085 5988 ft 136 kts 296°
2026-05-06 13:01 56.51857 -5.75582 5985 ft 137 kts 297°
2026-05-06 13:02 56.52345 -5.77067 5985 ft 137 kts 297°
2026-05-06 13:02 56.52825 -5.78563 5984 ft 137 kts 297°
2026-05-06 13:02 56.53301 -5.80072 5987 ft 139 kts 297°
2026-05-06 13:02 56.53777 -5.81602 5987 ft 140 kts 296°
2026-05-06 13:03 56.54255 -5.83151 5987 ft 141 kts 296°
2026-05-06 13:03 56.54729 -5.84702 5985 ft 142 kts 296°
2026-05-06 13:03 56.55200 -5.86270 5985 ft 142 kts 295°
2026-05-06 13:03 56.55670 -5.87847 5985 ft 142 kts 295°
2026-05-06 13:04 56.56135 -5.89433 5983 ft 143 kts 295°
2026-05-06 13:04 56.56597 -5.91018 5984 ft 143 kts 296°
2026-05-06 13:04 56.57164 -5.92504 5985 ft 143 kts 305°
2026-05-06 13:04 56.57792 -5.93909 5985 ft 144 kts 307°
2026-05-06 13:05 56.58440 -5.95285 5979 ft 143 kts 311°
2026-05-06 13:05 56.59103 -5.96609 5982 ft 141 kts 308°
2026-05-06 13:05 56.59737 -5.97970 5979 ft 140 kts 307°
2026-05-06 13:05 56.60356 -5.99331 5979 ft 139 kts 307°
2026-05-06 13:06 56.60965 -6.00692 5978 ft 139 kts 306°
2026-05-06 13:06 56.61564 -6.02053 5978 ft 138 kts 306°
2026-05-06 13:06 56.62156 -6.03418 5978 ft 137 kts 306°
2026-05-06 13:06 56.62788 -6.04721 5980 ft 137 kts 310°
2026-05-06 13:07 56.63442 -6.05973 5980 ft 137 kts 311°
2026-05-06 13:07 56.64100 -6.07229 5978 ft 137 kts 311°
2026-05-06 13:07 56.64747 -6.08483 5980 ft 136 kts 310°
2026-05-06 13:07 56.65388 -6.09745 5979 ft 136 kts 309°
2026-05-06 13:08 56.65935 -6.11127 5982 ft 135 kts 298°
2026-05-06 13:08 56.66402 -6.12588 6001 ft 134 kts 296°
2026-05-06 13:08 56.66861 -6.14078 6008 ft 136 kts 295°
2026-05-06 13:08 56.67320 -6.15586 6006 ft 137 kts 295°
2026-05-06 13:09 56.67778 -6.17118 6006 ft 139 kts 294°
2026-05-06 13:09 56.68236 -6.18672 6006 ft 140 kts 294°
2026-05-06 13:09 56.68693 -6.20246 6004 ft 142 kts 294°
2026-05-06 13:09 56.69152 -6.21850 6006 ft 144 kts 293°
2026-05-06 13:10 56.69610 -6.23478 6006 ft 146 kts 293°
2026-05-06 13:10 56.70066 -6.25124 6006 ft 147 kts 293°
2026-05-06 13:10 56.70524 -6.26800 6005 ft 148 kts 292°
2026-05-06 13:10 56.70982 -6.28495 6002 ft 150 kts 292°
2026-05-06 13:11 56.71440 -6.30208 6003 ft 151 kts 292°
2026-05-06 13:11 56.71893 -6.31925 5993 ft 152 kts 292°
2026-05-06 13:11 56.72358 -6.33661 5987 ft 153 kts 292°
2026-05-06 13:11 56.72827 -6.35398 5984 ft 153 kts 292°
2026-05-06 13:12 56.73298 -6.37140 5983 ft 154 kts 292°
2026-05-06 13:12 56.73769 -6.38889 5982 ft 153 kts 292°
2026-05-06 13:12 56.74243 -6.40628 5980 ft 153 kts 294°
2026-05-06 13:12 56.74743 -6.42365 5860 ft 156 kts 294°
2026-05-06 13:13 56.75260 -6.44121 5571 ft 157 kts 295°
2026-05-06 13:13 56.75779 -6.45857 5269 ft 157 kts 295°
2026-05-06 13:13 56.76306 -6.47586 5008 ft 155 kts 295°
2026-05-06 13:13 56.76838 -6.49291 4754 ft 154 kts 295°
2026-05-06 13:14 56.77373 -6.50984 4503 ft 154 kts 295°
2026-05-06 13:14 56.77913 -6.52668 4252 ft 154 kts 296°
2026-05-06 13:14 56.78453 -6.54334 4005 ft 153 kts 296°
2026-05-06 13:14 56.78996 -6.56000 3756 ft 152 kts 297°
2026-05-06 13:15 56.79541 -6.57652 3508 ft 152 kts 297°
2026-05-06 13:15 56.80091 -6.59296 3260 ft 152 kts 297°
2026-05-06 13:15 56.80643 -6.60924 3014 ft 151 kts 297°
2026-05-06 13:15 56.81214 -6.62619 2777 ft 161 kts 298°
2026-05-06 13:16 56.81811 -6.64392 2543 ft 166 kts 298°
2026-05-06 13:16 56.82417 -6.66185 2323 ft 167 kts 298°
2026-05-06 13:16 56.83032 -6.68000 2191 ft 168 kts 298°
2026-05-06 13:16 56.83586 -6.69879 2072 ft 168 kts 295°
2026-05-06 13:17 56.84132 -6.71761 2005 ft 166 kts 296°
2026-05-06 13:17 56.84661 -6.73564 1991 ft 163 kts 296°
2026-05-06 13:17 56.85204 -6.75403 1995 ft 161 kts 296°
2026-05-06 13:17 56.85736 -6.77197 1996 ft 160 kts 296°
2026-05-06 13:18 56.86267 -6.78980 1999 ft 159 kts 296°
2026-05-06 13:18 56.86796 -6.80751 2000 ft 159 kts 296°
2026-05-06 13:18 56.87327 -6.82527 2006 ft 159 kts 296°
2026-05-06 13:18 56.87859 -6.84294 2002 ft 158 kts 296°
2026-05-06 13:19 56.88390 -6.86056 2000 ft 158 kts 296°
2026-05-06 13:19 56.88920 -6.87807 2000 ft 158 kts 296°
2026-05-06 13:19 56.89454 -6.89560 2000 ft 158 kts 297°
2026-05-06 13:19 56.89990 -6.91317 2000 ft 158 kts 297°
2026-05-06 13:20 56.90528 -6.93070 2000 ft 158 kts 297°
2026-05-06 13:20 56.91067 -6.94825 2000 ft 159 kts 297°
2026-05-06 13:20 56.91612 -6.96588 2001 ft 159 kts 297°
2026-05-06 13:20 56.92156 -6.98357 2000 ft 160 kts 295°
2026-05-06 13:21 56.92645 -7.00178 2004 ft 160 kts 294°
2026-05-06 13:21 56.93141 -7.01997 2001 ft 160 kts 294°
2026-05-06 13:21 56.93640 -7.03815 2000 ft 160 kts 294°
2026-05-06 13:21 56.94143 -7.05637 2001 ft 161 kts 294°
2026-05-06 13:22 56.94649 -7.07466 2000 ft 161 kts 295°
2026-05-06 13:22 56.95156 -7.09291 1999 ft 161 kts 294°
2026-05-06 13:22 56.95668 -7.11115 2001 ft 161 kts 295°
2026-05-06 13:22 56.96184 -7.12942 2001 ft 162 kts 295°
2026-05-06 13:23 56.96701 -7.14772 2000 ft 162 kts 295°
2026-05-06 13:23 56.97150 -7.16658 2003 ft 161 kts 289°
2026-05-06 13:23 56.97549 -7.18574 1999 ft 162 kts 288°
2026-05-06 13:23 56.97940 -7.20503 1999 ft 162 kts 288°
2026-05-06 13:24 56.98329 -7.22434 2000 ft 161 kts 288°
2026-05-06 13:24 56.98720 -7.24361 1968 ft 161 kts 288°
2026-05-06 13:24 56.99135 -7.26297 1715 ft 166 kts 292°
2026-05-06 13:24 56.99772 -7.28084 1472 ft 169 kts 306°
2026-05-06 13:25 57.00511 -7.29722 1287 ft 160 kts 309°
2026-05-06 13:25 57.01230 -7.31159 1123 ft 149 kts 314°
2026-05-06 13:25 57.01958 -7.32453 940 ft 142 kts 313°
2026-05-06 13:25 57.02629 -7.33684 827 ft 136 kts 314°
2026-05-06 13:26 57.03264 -7.34814 751 ft 117 kts 314°
2026-05-06 13:26 57.03816 -7.35797 604 ft 106 kts 310°
2026-05-06 13:26 57.04121 -7.36787 505 ft 84 kts 285°
2026-05-06 13:26 57.04078 -7.37855 490 ft 84 kts 245°
2026-05-06 13:27 57.03838 -7.38804 429 ft 82 kts 238°
2026-05-06 13:27 57.03593 -7.39723 371 ft 80 kts 237°
2026-05-06 13:27 57.03357 -7.40633 293 ft 79 kts 240°
2026-05-06 13:27 57.03162 -7.41575 203 ft 79 kts 243°
2026-05-06 13:28 57.02979 -7.42472 75 ft 74 kts 242°
2026-05-06 13:28 57.02799 -7.43251 5 ft 49 kts 238°
2026-05-06 13:28 57.02713 -7.43594 5 ft 18 kts 246°
2026-05-06 13:28 57.02652 -7.43854 5 ft 25 kts 244°
2026-05-06 13:29 57.02591 -7.44148 5 ft 28 kts 245°
2026-05-06 13:29 57.02519 -7.44453 5 ft 19 kts 259°
2026-05-06 13:29 57.02507 -7.44711 5 ft 24 kts 271°
2026-05-06 13:29 57.02535 -7.44830 5 ft 5 kts 324°
2026-05-06 13:30 57.02550 -7.44862 5 ft 1 kts 27°
2026-05-06 13:30 57.02551 -7.44861 5 ft 0 kts 39°